sensor_id;sensor_type;location;lat;lon;timestamp;pressure;altitude;pressure_sealevel;temperature;humidity
3428;BME280;1727;42.624;23.406;2023-08-01T00:00:54;94532.03;;;22.09;73.35
3428;BME280;1727;42.624;23.406;2023-08-01T00:03:21;94537.16;;;21.97;73.88
3428;BME280;1727;42.624;23.406;2023-08-01T00:05:48;94533.66;;;21.90;74.41
3428;BME280;1727;42.624;23.406;2023-08-01T00:08:15;94525.47;;;21.85;74.59
3428;BME280;1727;42.624;23.406;2023-08-01T00:10:42;94532.25;;;21.81;74.93
3428;BME280;1727;42.624;23.406;2023-08-01T00:13:10;94530.00;;;21.78;74.83
3428;BME280;1727;42.624;23.406;2023-08-01T00:15:37;94526.53;;;21.71;75.04
3428;BME280;1727;42.624;23.406;2023-08-01T00:18:04;94532.47;;;21.73;75.14
3428;BME280;1727;42.624;23.406;2023-08-01T00:20:31;94529.00;;;21.72;75.00
3428;BME280;1727;42.624;23.406;2023-08-01T00:22:58;94531.44;;;21.74;75.18
3428;BME280;1727;42.624;23.406;2023-08-01T00:25:25;94529.41;;;21.69;75.13
3428;BME280;1727;42.624;23.406;2023-08-01T00:27:51;94515.63;;;21.65;75.33
3428;BME280;1727;42.624;23.406;2023-08-01T00:30:20;94529.00;;;21.72;75.04
3428;BME280;1727;42.624;23.406;2023-08-01T00:32:47;94520.56;;;21.69;74.63
3428;BME280;1727;42.624;23.406;2023-08-01T00:35:14;94526.91;;;21.68;74.67
3428;BME280;1727;42.624;23.406;2023-08-01T00:37:41;94534.75;;;21.69;74.71
3428;BME280;1727;42.624;23.406;2023-08-01T00:40:08;94525.28;;;21.67;74.87
3428;BME280;1727;42.624;23.406;2023-08-01T00:42:36;94535.94;;;21.67;74.67
3428;BME280;1727;42.624;23.406;2023-08-01T00:45:04;94534.31;;;21.65;74.71
3428;BME280;1727;42.624;23.406;2023-08-01T00:47:32;94530.84;;;21.58;75.31
3428;BME280;1727;42.624;23.406;2023-08-01T00:49:59;94527.34;;;21.58;75.08
3428;BME280;1727;42.624;23.406;2023-08-01T00:52:26;94528.16;;;21.52;75.29
3428;BME280;1727;42.624;23.406;2023-08-01T00:54:54;94524.47;;;21.46;75.81
3428;BME280;1727;42.624;23.406;2023-08-01T00:57:21;94527.16;;;21.46;75.85
3428;BME280;1727;42.624;23.406;2023-08-01T00:59:48;94520.56;;;21.49;75.51
3428;BME280;1727;42.624;23.406;2023-08-01T01:02:15;94521.19;;;21.44;75.73
3428;BME280;1727;42.624;23.406;2023-08-01T01:04:43;94500.66;;;21.25;76.14
3428;BME280;1727;42.624;23.406;2023-08-01T01:07:10;94517.28;;;21.27;76.36
3428;BME280;1727;42.624;23.406;2023-08-01T01:09:38;94504.34;;;21.30;76.33
3428;BME280;1727;42.624;23.406;2023-08-01T01:12:06;94507.00;;;21.30;76.62
3428;BME280;1727;42.624;23.406;2023-08-01T01:14:33;94511.94;;;21.27;76.56
3428;BME280;1727;42.624;23.406;2023-08-01T01:16:59;94499.41;;;21.21;76.89
3428;BME280;1727;42.624;23.406;2023-08-01T01:19:26;94509.03;;;21.22;76.88
3428;BME280;1727;42.624;23.406;2023-08-01T01:21:55;94509.03;;;21.22;76.67
3428;BME280;1727;42.624;23.406;2023-08-01T01:24:22;94508.44;;;21.20;77.12
3428;BME280;1727;42.624;23.406;2023-08-01T01:26:50;94502.88;;;21.15;77.47
3428;BME280;1727;42.624;23.406;2023-08-01T01:29:18;94500.63;;;21.12;77.74
3428;BME280;1727;42.624;23.406;2023-08-01T01:31:47;94493.63;;;21.04;77.97
3428;BME280;1727;42.624;23.406;2023-08-01T01:34:14;94489.31;;;21.10;78.00
3428;BME280;1727;42.624;23.406;2023-08-01T01:36:41;94487.91;;;21.14;77.50
3428;BME280;1727;42.624;23.406;2023-08-01T01:39:10;94498.16;;;21.17;77.39
3428;BME280;1727;42.624;23.406;2023-08-01T01:41:36;94492.84;;;21.17;77.48
3428;BME280;1727;42.624;23.406;2023-08-01T01:44:03;94499.59;;;21.19;77.36
3428;BME280;1727;42.624;23.406;2023-08-01T01:46:30;94488.72;;;21.21;77.19
3428;BME280;1727;42.624;23.406;2023-08-01T01:48:57;94492.00;;;21.23;76.98
3428;BME280;1727;42.624;23.406;2023-08-01T01:51:25;94487.53;;;21.23;76.84
3428;BME280;1727;42.624;23.406;2023-08-01T01:53:52;94487.09;;;21.26;76.55
3428;BME280;1727;42.624;23.406;2023-08-01T01:56:21;94500.66;;;21.25;76.74
3428;BME280;1727;42.624;23.406;2023-08-01T01:58:47;94503.72;;;21.28;76.59
3428;BME280;1727;42.624;23.406;2023-08-01T02:01:14;94505.16;;;21.24;76.38
3428;BME280;1727;42.624;23.406;2023-08-01T02:03:41;94502.50;;;21.31;76.45
3428;BME280;1727;42.624;23.406;2023-08-01T02:06:08;94498.19;;;21.30;76.49
3428;BME280;1727;42.624;23.406;2023-08-01T02:08:35;94498.59;;;21.27;76.40
3428;BME280;1727;42.624;23.406;2023-08-01T02:11:03;94496.97;;;21.26;76.59
3428;BME280;1727;42.624;23.406;2023-08-01T02:13:32;94494.69;;;21.29;76.39
3428;BME280;1727;42.624;23.406;2023-08-01T02:15:59;94496.97;;;21.26;76.18
3428;BME280;1727;42.624;23.406;2023-08-01T02:18:26;94496.13;;;21.25;76.37
3428;BME280;1727;42.624;23.406;2023-08-01T02:20:53;94501.47;;;21.25;76.69
3428;BME280;1727;42.624;23.406;2023-08-01T02:23:20;94506.38;;;21.22;76.75
3428;BME280;1727;42.624;23.406;2023-08-01T02:25:46;94498.78;;;21.12;77.20
3428;BME280;1727;42.624;23.406;2023-08-01T02:28:13;94501.03;;;21.15;76.94
3428;BME280;1727;42.624;23.406;2023-08-01T02:30:41;94508.00;;;21.10;77.46
3428;BME280;1727;42.624;23.406;2023-08-01T02:33:08;94504.72;;;21.08;77.62
3428;BME280;1727;42.624;23.406;2023-08-01T02:35:35;94501.84;;;21.02;77.85
3428;BME280;1727;42.624;23.406;2023-08-01T02:38:02;94502.25;;;20.99;77.97
3428;BME280;1727;42.624;23.406;2023-08-01T02:40:29;94491.78;;;20.91;78.90
3428;BME280;1727;42.624;23.406;2023-08-01T02:42:56;94495.69;;;20.95;78.55
3428;BME280;1727;42.624;23.406;2023-08-01T02:45:24;94499.16;;;20.96;78.48
3428;BME280;1727;42.624;23.406;2023-08-01T02:47:53;94496.09;;;20.92;77.91
3428;BME280;1727;42.624;23.406;2023-08-01T02:50:19;94503.69;;;20.89;78.09
3428;BME280;1727;42.624;23.406;2023-08-01T02:52:46;94499.31;;;20.81;78.42
3428;BME280;1727;42.624;23.406;2023-08-01T02:55:13;94497.06;;;20.78;78.69
3428;BME280;1727;42.624;23.406;2023-08-01T02:57:40;94493.56;;;20.71;79.16
3428;BME280;1727;42.624;23.406;2023-08-01T03:00:07;94491.53;;;20.66;79.15
3428;BME280;1727;42.624;23.406;2023-08-01T03:02:37;94497.25;;;20.57;79.37
3428;BME280;1727;42.624;23.406;2023-08-01T03:05:06;94497.19;;;20.50;79.84
3428;BME280;1727;42.624;23.406;2023-08-01T03:07:33;94497.59;;;20.40;80.17
3428;BME280;1727;42.624;23.406;2023-08-01T03:10:00;94497.34;;;20.35;80.54
3428;BME280;1727;42.624;23.406;2023-08-01T03:12:27;94495.09;;;20.39;80.21
3428;BME280;1727;42.624;23.406;2023-08-01T03:14:54;94496.38;;;20.43;79.99
3428;BME280;1727;42.624;23.406;2023-08-01T03:17:21;94497.75;;;20.39;80.23
3428;BME280;1727;42.624;23.406;2023-08-01T03:19:47;94499.22;;;20.41;80.03
3428;BME280;1727;42.624;23.406;2023-08-01T03:22:16;94498.41;;;20.41;79.83
3428;BME280;1727;42.624;23.406;2023-08-01T03:24:43;94496.78;;;20.40;80.12
3428;BME280;1727;42.624;23.406;2023-08-01T03:27:10;94502.09;;;20.40;80.00
3428;BME280;1727;42.624;23.406;2023-08-01T03:29:37;94499.84;;;20.44;80.04
3428;BME280;1727;42.624;23.406;2023-08-01T03:32:05;94499.84;;;20.44;79.65
3428;BME280;1727;42.624;23.406;2023-08-01T03:34:32;94503.75;;;20.48;79.95
3428;BME280;1727;42.624;23.406;2023-08-01T03:36:58;94511.34;;;20.51;79.41
3428;BME280;1727;42.624;23.406;2023-08-01T03:39:27;94511.34;;;20.51;79.43
3428;BME280;1727;42.624;23.406;2023-08-01T03:41:53;94515.25;;;20.48;79.47
3428;BME280;1727;42.624;23.406;2023-08-01T03:44:20;94524.06;;;20.49;79.27
3428;BME280;1727;42.624;23.406;2023-08-01T03:46:47;94525.13;;;20.54;78.78
3428;BME280;1727;42.624;23.406;2023-08-01T03:49:14;94527.78;;;20.13;81.24
3428;BME280;1727;42.624;23.406;2023-08-01T03:51:40;94538.22;;;19.73;84.02
3428;BME280;1727;42.624;23.406;2023-08-01T03:54:07;94526.25;;;19.63;86.06
3428;BME280;1727;42.624;23.406;2023-08-01T03:56:35;94522.63;;;19.70;86.95
3428;BME280;1727;42.624;23.406;2023-08-01T03:59:04;94525.13;;;19.78;87.28
3428;BME280;1727;42.624;23.406;2023-08-01T04:01:31;94535.41;;;19.88;86.87
3428;BME280;1727;42.624;23.406;2023-08-01T04:03:58;94530.75;;;20.31;85.73
3428;BME280;1727;42.624;23.406;2023-08-01T04:06:24;94535.09;;;21.07;82.63
3428;BME280;1727;42.624;23.406;2023-08-01T04:08:51;94527.56;;;21.56;79.14
3428;BME280;1727;42.624;23.406;2023-08-01T04:11:18;94529.56;;;22.01;77.46
3428;BME280;1727;42.624;23.406;2023-08-01T04:13:46;94533.38;;;22.38;75.65
3428;BME280;1727;42.624;23.406;2023-08-01T04:16:13;94538.59;;;22.71;73.81
3428;BME280;1727;42.624;23.406;2023-08-01T04:18:40;94541.88;;;23.11;72.88
3428;BME280;1727;42.624;23.406;2023-08-01T04:21:09;94535.81;;;23.60;70.86
3428;BME280;1727;42.624;23.406;2023-08-01T04:23:36;94534.19;;;24.02;68.96
3428;BME280;1727;42.624;23.406;2023-08-01T04:26:03;94545.03;;;24.51;67.86
3428;BME280;1727;42.624;23.406;2023-08-01T04:28:31;94544.63;;;25.02;66.18
3428;BME280;1727;42.624;23.406;2023-08-01T04:30:59;94540.09;;;25.56;62.63
3428;BME280;1727;42.624;23.406;2023-08-01T04:33:26;94539.94;;;25.81;60.84
3428;BME280;1727;42.624;23.406;2023-08-01T04:35:53;94547.78;;;25.94;60.20
3428;BME280;1727;42.624;23.406;2023-08-01T04:38:20;94535.97;;;26.07;60.13
3428;BME280;1727;42.624;23.406;2023-08-01T04:40:47;94547.53;;;26.19;59.47
3428;BME280;1727;42.624;23.406;2023-08-01T04:43:14;94525.06;;;26.25;58.87
3428;BME280;1727;42.624;23.406;2023-08-01T04:45:41;94539.09;;;26.50;59.63
3428;BME280;1727;42.624;23.406;2023-08-01T04:48:09;94538.66;;;26.94;62.68
3428;BME280;1727;42.624;23.406;2023-08-01T04:50:36;94538.13;;;27.37;59.61
3428;BME280;1727;42.624;23.406;2023-08-01T04:53:02;94541.44;;;27.72;56.23
3428;BME280;1727;42.624;23.406;2023-08-01T04:55:29;94532.31;;;27.90;53.74
3428;BME280;1727;42.624;23.406;2023-08-01T04:57:56;94536.16;;;28.11;54.03
3428;BME280;1727;42.624;23.406;2023-08-01T05:00:23;94531.78;;;28.27;55.00
3428;BME280;1727;42.624;23.406;2023-08-01T05:02:50;94529.13;;;28.49;54.32
3428;BME280;1727;42.624;23.406;2023-08-01T05:05:18;94527.47;;;28.64;51.15
3428;BME280;1727;42.624;23.406;2023-08-01T05:07:45;94529.00;;;28.82;49.60
3428;BME280;1727;42.624;23.406;2023-08-01T05:10:12;94530.31;;;28.96;50.86
3428;BME280;1727;42.624;23.406;2023-08-01T05:12:39;94525.19;;;29.22;50.62
3428;BME280;1727;42.624;23.406;2023-08-01T05:15:06;94533.13;;;29.34;48.70
3428;BME280;1727;42.624;23.406;2023-08-01T05:17:33;94529.22;;;29.46;47.74
3428;BME280;1727;42.624;23.406;2023-08-01T05:20:00;94536.09;;;29.59;47.13
3428;BME280;1727;42.624;23.406;2023-08-01T05:22:31;94528.66;;;29.76;46.88
3428;BME280;1727;42.624;23.406;2023-08-01T05:24:57;94534.47;;;29.90;45.80
3428;BME280;1727;42.624;23.406;2023-08-01T05:27:24;94528.72;;;29.81;45.74
3428;BME280;1727;42.624;23.406;2023-08-01T05:29:51;94533.06;;;29.82;44.70
3428;BME280;1727;42.624;23.406;2023-08-01T05:32:18;94522.59;;;29.96;45.04
3428;BME280;1727;42.624;23.406;2023-08-01T05:34:44;94528.84;;;29.97;45.60
3428;BME280;1727;42.624;23.406;2023-08-01T05:37:11;94525.84;;;29.93;45.71
3428;BME280;1727;42.624;23.406;2023-08-01T05:39:39;94525.81;;;29.88;42.80
3428;BME280;1727;42.624;23.406;2023-08-01T05:42:07;94517.66;;;29.51;43.06
3428;BME280;1727;42.624;23.406;2023-08-01T05:44:34;94522.34;;;29.39;43.26
3428;BME280;1727;42.624;23.406;2023-08-01T05:47:01;94528.06;;;29.42;44.66
3428;BME280;1727;42.624;23.406;2023-08-01T05:49:28;94531.81;;;29.36;43.21
3428;BME280;1727;42.624;23.406;2023-08-01T05:51:55;94528.06;;;29.42;44.01
3428;BME280;1727;42.624;23.406;2023-08-01T05:54:22;94526.19;;;29.16;43.84
3428;BME280;1727;42.624;23.406;2023-08-01T05:56:50;94524.59;;;29.20;43.92
3428;BME280;1727;42.624;23.406;2023-08-01T05:59:17;94525.09;;;29.17;44.39
3428;BME280;1727;42.624;23.406;2023-08-01T06:01:45;94520.78;;;28.12;45.54
3428;BME280;1727;42.624;23.406;2023-08-01T06:04:12;94522.84;;;28.43;45.81
3428;BME280;1727;42.624;23.406;2023-08-01T06:06:38;94516.91;;;28.63;44.80
3428;BME280;1727;42.624;23.406;2023-08-01T06:09:05;94518.28;;;28.87;44.56
3428;BME280;1727;42.624;23.406;2023-08-01T06:11:32;94519.50;;;28.96;44.14
3428;BME280;1727;42.624;23.406;2023-08-01T06:14:01;94517.72;;;28.85;43.80
3428;BME280;1727;42.624;23.406;2023-08-01T06:16:28;94524.19;;;28.41;45.16
3428;BME280;1727;42.624;23.406;2023-08-01T06:18:55;94526.00;;;28.57;44.98
3428;BME280;1727;42.624;23.406;2023-08-01T06:21:22;94520.91;;;28.60;44.95
3428;BME280;1727;42.624;23.406;2023-08-01T06:23:49;94510.69;;;28.62;44.81
3428;BME280;1727;42.624;23.406;2023-08-01T06:26:16;94510.50;;;28.69;43.94
3428;BME280;1727;42.624;23.406;2023-08-01T06:28:43;94515.50;;;28.82;43.79
3428;BME280;1727;42.624;23.406;2023-08-01T06:31:11;94515.56;;;29.09;43.42
3428;BME280;1727;42.624;23.406;2023-08-01T06:33:38;94505.50;;;29.26;42.52
3428;BME280;1727;42.624;23.406;2023-08-01T06:36:05;94506.41;;;29.37;42.61
3428;BME280;1727;42.624;23.406;2023-08-01T06:38:32;94506.66;;;29.36;45.32
3428;BME280;1727;42.624;23.406;2023-08-01T06:40:59;94497.13;;;29.28;46.25
3428;BME280;1727;42.624;23.406;2023-08-01T06:43:25;94495.13;;;28.91;45.68
3428;BME280;1727;42.624;23.406;2023-08-01T06:45:52;94496.88;;;28.20;48.15
3428;BME280;1727;42.624;23.406;2023-08-01T06:48:20;94502.59;;;28.62;47.01
3428;BME280;1727;42.624;23.406;2023-08-01T06:50:47;94506.41;;;28.45;47.17
3428;BME280;1727;42.624;23.406;2023-08-01T06:53:14;94504.28;;;27.91;49.78
3428;BME280;1727;42.624;23.406;2023-08-01T06:55:41;94500.06;;;28.17;47.85
3428;BME280;1727;42.624;23.406;2023-08-01T06:58:08;94492.75;;;27.96;49.62
3428;BME280;1727;42.624;23.406;2023-08-01T07:00:34;94504.16;;;28.36;48.32
3428;BME280;1727;42.624;23.406;2023-08-01T07:03:02;94505.22;;;28.35;46.67
3428;BME280;1727;42.624;23.406;2023-08-01T07:05:30;94505.44;;;27.79;49.12
3428;BME280;1727;42.624;23.406;2023-08-01T07:07:57;94495.53;;;27.84;48.99
3428;BME280;1727;42.624;23.406;2023-08-01T07:10:24;94504.06;;;28.31;47.88
3428;BME280;1727;42.624;23.406;2023-08-01T07:12:51;94493.28;;;28.75;47.66
3428;BME280;1727;42.624;23.406;2023-08-01T07:15:18;94502.97;;;29.20;45.84
3428;BME280;1727;42.624;23.406;2023-08-01T07:17:44;94493.09;;;29.30;45.14
3428;BME280;1727;42.624;23.406;2023-08-01T07:20:11;94490.47;;;29.41;44.10
3428;BME280;1727;42.624;23.406;2023-08-01T07:22:40;94487.47;;;29.37;44.14
3428;BME280;1727;42.624;23.406;2023-08-01T07:25:07;94482.28;;;29.57;43.67
3428;BME280;1727;42.624;23.406;2023-08-01T07:27:34;94486.63;;;29.58;43.72
3428;BME280;1727;42.624;23.406;2023-08-01T07:30:03;94483.25;;;29.78;43.65
3428;BME280;1727;42.624;23.406;2023-08-01T07:32:30;94482.19;;;29.79;43.88
3428;BME280;1727;42.624;23.406;2023-08-01T07:34:57;94476.16;;;29.40;43.61
3428;BME280;1727;42.624;23.406;2023-08-01T07:37:24;94483.31;;;29.24;45.27
3428;BME280;1727;42.624;23.406;2023-08-01T07:39:55;94483.91;;;29.05;44.31
3428;BME280;1727;42.624;23.406;2023-08-01T07:42:22;94476.31;;;29.02;44.61
3428;BME280;1727;42.624;23.406;2023-08-01T07:44:48;94480.03;;;28.95;45.32
3428;BME280;1727;42.624;23.406;2023-08-01T07:47:15;94471.44;;;28.55;44.70
3428;BME280;1727;42.624;23.406;2023-08-01T07:49:42;94472.75;;;28.74;44.65
3428;BME280;1727;42.624;23.406;2023-08-01T07:52:09;94478.41;;;28.73;46.33
3428;BME280;1727;42.624;23.406;2023-08-01T07:54:36;94481.25;;;29.10;46.06
3428;BME280;1727;42.624;23.406;2023-08-01T07:57:05;94473.00;;;29.48;44.50
3428;BME280;1727;42.624;23.406;2023-08-01T07:59:32;94484.81;;;29.42;44.19
3428;BME280;1727;42.624;23.406;2023-08-01T08:01:58;94479.63;;;29.09;44.97
3428;BME280;1727;42.624;23.406;2023-08-01T08:04:25;94481.16;;;28.78;45.96
3428;BME280;1727;42.624;23.406;2023-08-01T08:06:52;94467.50;;;29.11;44.76
3428;BME280;1727;42.624;23.406;2023-08-01T08:09:20;94465.53;;;29.34;43.66
3428;BME280;1727;42.624;23.406;2023-08-01T08:11:48;94470.53;;;29.47;42.90
3428;BME280;1727;42.624;23.406;2023-08-01T08:14:17;94471.97;;;29.54;41.81
3428;BME280;1727;42.624;23.406;2023-08-01T08:16:45;94467.91;;;29.25;43.12
3428;BME280;1727;42.624;23.406;2023-08-01T08:19:12;94466.88;;;29.31;43.20
3428;BME280;1727;42.624;23.406;2023-08-01T08:21:39;94465.47;;;29.50;42.19
3428;BME280;1727;42.624;23.406;2023-08-01T08:24:06;94453.09;;;29.59;42.11
3428;BME280;1727;42.624;23.406;2023-08-01T08:26:33;94451.28;;;29.11;42.73
3428;BME280;1727;42.624;23.406;2023-08-01T08:29:02;94449.47;;;29.49;42.70
3428;BME280;1727;42.624;23.406;2023-08-01T08:31:31;94449.88;;;29.63;42.13
3428;BME280;1727;42.624;23.406;2023-08-01T08:33:58;94446.50;;;29.82;41.30
3428;BME280;1727;42.624;23.406;2023-08-01T08:36:25;94445.25;;;30.00;40.49
3428;BME280;1727;42.624;23.406;2023-08-01T08:38:52;94445.16;;;30.27;41.04
3428;BME280;1727;42.624;23.406;2023-08-01T08:41:20;94435.75;;;30.40;39.58
3428;BME280;1727;42.624;23.406;2023-08-01T08:43:48;94441.06;;;30.19;40.70
3428;BME280;1727;42.624;23.406;2023-08-01T08:46:16;94431.63;;;30.27;41.16
3428;BME280;1727;42.624;23.406;2023-08-01T08:48:45;94422.16;;;30.35;40.22
3428;BME280;1727;42.624;23.406;2023-08-01T08:51:12;94415.13;;;30.34;39.92
3428;BME280;1727;42.624;23.406;2023-08-01T08:53:40;94424.13;;;30.49;40.43
3428;BME280;1727;42.624;23.406;2023-08-01T08:56:08;94418.56;;;30.66;39.95
3428;BME280;1727;42.624;23.406;2023-08-01T08:58:36;94423.44;;;30.74;39.06
3428;BME280;1727;42.624;23.406;2023-08-01T09:01:05;94420.94;;;30.63;40.22
3428;BME280;1727;42.624;23.406;2023-08-01T09:03:33;94419.09;;;30.68;38.75
3428;BME280;1727;42.624;23.406;2023-08-01T09:06:04;94422.34;;;30.65;39.79
3428;BME280;1727;42.624;23.406;2023-08-01T09:08:36;94406.59;;;30.62;39.39
3428;BME280;1727;42.624;23.406;2023-08-01T09:11:03;94410.69;;;30.70;39.58
3428;BME280;1727;42.624;23.406;2023-08-01T09:13:30;94413.69;;;30.73;39.18
3428;BME280;1727;42.624;23.406;2023-08-01T09:15:57;94408.28;;;30.73;39.77
3428;BME280;1727;42.624;23.406;2023-08-01T09:18:24;94408.16;;;30.48;39.73
3428;BME280;1727;42.624;23.406;2023-08-01T09:20:51;94396.66;;;30.15;40.85
3428;BME280;1727;42.624;23.406;2023-08-01T09:23:19;94399.69;;;29.82;41.28
3428;BME280;1727;42.624;23.406;2023-08-01T09:25:46;94393.88;;;30.05;41.50
3428;BME280;1727;42.624;23.406;2023-08-01T09:28:17;94399.34;;;29.73;42.02
3428;BME280;1727;42.624;23.406;2023-08-01T09:30:51;94394.78;;;29.10;43.86
3428;BME280;1727;42.624;23.406;2023-08-01T09:33:19;94394.16;;;28.97;44.41
3428;BME280;1727;42.624;23.406;2023-08-01T09:35:48;94389.59;;;29.03;44.68
3428;BME280;1727;42.624;23.406;2023-08-01T09:38:16;94395.81;;;28.77;43.65
3428;BME280;1727;42.624;23.406;2023-08-01T09:40:45;94391.16;;;28.94;43.68
3428;BME280;1727;42.624;23.406;2023-08-01T09:43:13;94382.34;;;29.09;43.68
3428;BME280;1727;42.624;23.406;2023-08-01T09:45:50;94387.75;;;29.41;43.29
3428;BME280;1727;42.624;23.406;2023-08-01T09:48:22;94379.50;;;29.52;43.23
3428;BME280;1727;42.624;23.406;2023-08-01T09:50:49;94372.25;;;29.26;44.02
3428;BME280;1727;42.624;23.406;2023-08-01T09:53:16;94373.41;;;29.40;43.63
3428;BME280;1727;42.624;23.406;2023-08-01T09:55:46;94372.72;;;29.50;43.62
3428;BME280;1727;42.624;23.406;2023-08-01T09:58:17;94373.09;;;29.69;42.89
3428;BME280;1727;42.624;23.406;2023-08-01T10:00:47;94356.25;;;29.56;43.58
3428;BME280;1727;42.624;23.406;2023-08-01T10:03:16;94356.34;;;29.72;43.77
3428;BME280;1727;42.624;23.406;2023-08-01T10:05:43;94348.56;;;29.80;42.93
3428;BME280;1727;42.624;23.406;2023-08-01T10:08:11;94341.75;;;29.78;42.88
3428;BME280;1727;42.624;23.406;2023-08-01T10:10:39;94342.25;;;29.70;43.22
3428;BME280;1727;42.624;23.406;2023-08-01T10:13:09;94343.28;;;29.58;43.14
3428;BME280;1727;42.624;23.406;2023-08-01T10:15:39;94337.78;;;29.48;43.83
3428;BME280;1727;42.624;23.406;2023-08-01T10:18:07;94324.28;;;28.84;44.30
3428;BME280;1727;42.624;23.406;2023-08-01T10:20:36;94325.28;;;29.00;44.48
3428;BME280;1727;42.624;23.406;2023-08-01T10:23:04;94334.69;;;28.92;44.41
3428;BME280;1727;42.624;23.406;2023-08-01T10:25:32;94329.88;;;28.73;44.02
3428;BME280;1727;42.624;23.406;2023-08-01T10:28:00;94319.97;;;28.83;43.97
3428;BME280;1727;42.624;23.406;2023-08-01T10:30:29;94322.88;;;29.04;43.64
3428;BME280;1727;42.624;23.406;2023-08-01T10:32:57;94319.72;;;29.17;43.37
3428;BME280;1727;42.624;23.406;2023-08-01T10:35:34;94315.06;;;29.44;42.89
3428;BME280;1727;42.624;23.406;2023-08-01T10:38:05;94312.44;;;29.54;41.97
3428;BME280;1727;42.624;23.406;2023-08-01T10:40:36;94308.44;;;29.67;42.97
3428;BME280;1727;42.624;23.406;2023-08-01T10:43:03;94300.88;;;29.69;41.39
3428;BME280;1727;42.624;23.406;2023-08-01T10:45:32;94297.34;;;29.69;41.66
3428;BME280;1727;42.624;23.406;2023-08-01T10:48:16;94298.19;;;29.74;42.64
3428;BME280;1727;42.624;23.406;2023-08-01T10:50:54;94298.38;;;29.52;41.05
3428;BME280;1727;42.624;23.406;2023-08-01T10:53:21;94291.78;;;29.43;41.72
3428;BME280;1727;42.624;23.406;2023-08-01T10:55:47;94292.59;;;29.44;42.33
3428;BME280;1727;42.624;23.406;2023-08-01T10:58:15;94280.59;;;29.67;42.10
3428;BME280;1727;42.624;23.406;2023-08-01T11:00:43;94286.66;;;29.94;42.01
3428;BME280;1727;42.624;23.406;2023-08-01T11:03:10;94286.81;;;29.72;42.57
3428;BME280;1727;42.624;23.406;2023-08-01T11:05:37;94283.78;;;29.58;42.10
3428;BME280;1727;42.624;23.406;2023-08-01T11:08:04;94279.19;;;29.54;42.32
3428;BME280;1727;42.624;23.406;2023-08-01T11:10:32;94276.22;;;29.60;42.98
3428;BME280;1727;42.624;23.406;2023-08-01T11:12:59;94266.22;;;29.61;42.75
3428;BME280;1727;42.624;23.406;2023-08-01T11:15:26;94268.53;;;29.42;42.28
3428;BME280;1727;42.624;23.406;2023-08-01T11:17:55;94265.94;;;29.57;41.65
3428;BME280;1727;42.624;23.406;2023-08-01T11:20:23;94260.59;;;29.78;42.01
3428;BME280;1727;42.624;23.406;2023-08-01T11:22:52;94258.97;;;29.72;42.10
3428;BME280;1727;42.624;23.406;2023-08-01T11:25:30;94250.13;;;30.02;41.74
3428;BME280;1727;42.624;23.406;2023-08-01T11:28:01;94248.34;;;30.17;41.83
3428;BME280;1727;42.624;23.406;2023-08-01T11:30:30;94245.63;;;30.23;40.41
3428;BME280;1727;42.624;23.406;2023-08-01T11:32:59;94249.59;;;29.95;42.17
3428;BME280;1727;42.624;23.406;2023-08-01T11:35:28;94244.22;;;30.05;41.30
3428;BME280;1727;42.624;23.406;2023-08-01T11:37:55;94244.72;;;30.02;41.86
3428;BME280;1727;42.624;23.406;2023-08-01T11:40:24;94248.50;;;29.90;41.93
3428;BME280;1727;42.624;23.406;2023-08-01T11:42:56;94240.56;;;29.69;41.63
3428;BME280;1727;42.624;23.406;2023-08-01T11:45:23;94239.03;;;29.98;41.23
3428;BME280;1727;42.624;23.406;2023-08-01T11:47:50;94234.53;;;30.09;40.19
3428;BME280;1727;42.624;23.406;2023-08-01T11:50:22;94235.06;;;30.11;41.22
3428;BME280;1727;42.624;23.406;2023-08-01T11:52:49;94224.41;;;29.79;40.85
3428;BME280;1727;42.624;23.406;2023-08-01T11:55:21;94222.81;;;29.98;41.09
3428;BME280;1727;42.624;23.406;2023-08-01T11:57:53;94216.34;;;30.04;40.12
3428;BME280;1727;42.624;23.406;2023-08-01T12:00:24;94212.72;;;29.73;40.48
3428;BME280;1727;42.624;23.406;2023-08-01T12:02:51;94209.53;;;29.91;41.58
3428;BME280;1727;42.624;23.406;2023-08-01T12:05:23;94208.78;;;30.06;40.53
3428;BME280;1727;42.624;23.406;2023-08-01T12:07:50;94208.28;;;30.19;38.54
3428;BME280;1727;42.624;23.406;2023-08-01T12:10:17;94195.56;;;30.10;39.73
3428;BME280;1727;42.624;23.406;2023-08-01T12:12:45;94203.66;;;30.15;40.06
3428;BME280;1727;42.624;23.406;2023-08-01T12:15:13;94186.53;;;29.99;39.29
3428;BME280;1727;42.624;23.406;2023-08-01T12:17:40;94188.63;;;29.72;40.23
3428;BME280;1727;42.624;23.406;2023-08-01T12:20:08;94185.88;;;29.51;41.20
3428;BME280;1727;42.624;23.406;2023-08-01T12:22:36;94188.34;;;29.63;41.15
3428;BME280;1727;42.624;23.406;2023-08-01T12:25:03;94187.56;;;29.78;39.82
3428;BME280;1727;42.624;23.406;2023-08-01T12:27:30;94188.69;;;29.92;40.00
3428;BME280;1727;42.624;23.406;2023-08-01T12:29:57;94177.34;;;30.00;39.21
3428;BME280;1727;42.624;23.406;2023-08-01T12:32:24;94176.88;;;30.18;38.72
3428;BME280;1727;42.624;23.406;2023-08-01T12:34:50;94179.31;;;30.30;38.53
3428;BME280;1727;42.624;23.406;2023-08-01T12:37:17;94172.53;;;30.28;38.40
3428;BME280;1727;42.624;23.406;2023-08-01T12:39:45;94168.75;;;30.34;38.72
3428;BME280;1727;42.624;23.406;2023-08-01T12:42:12;94164.16;;;30.09;39.86
3428;BME280;1727;42.624;23.406;2023-08-01T12:44:39;94166.53;;;30.00;40.89
3428;BME280;1727;42.624;23.406;2023-08-01T12:47:06;94160.59;;;30.03;40.45
3428;BME280;1727;42.624;23.406;2023-08-01T12:49:36;94164.44;;;30.12;41.20
3428;BME280;1727;42.624;23.406;2023-08-01T12:52:03;94162.53;;;30.28;39.94
3428;BME280;1727;42.624;23.406;2023-08-01T12:54:30;94157.66;;;30.35;38.95
3428;BME280;1727;42.624;23.406;2023-08-01T12:56:58;94158.50;;;30.41;40.02
3428;BME280;1727;42.624;23.406;2023-08-01T12:59:25;94151.97;;;30.52;39.49
3428;BME280;1727;42.624;23.406;2023-08-01T13:01:52;94159.28;;;30.51;38.50
3428;BME280;1727;42.624;23.406;2023-08-01T13:04:19;94160.91;;;30.58;37.58
3428;BME280;1727;42.624;23.406;2023-08-01T13:06:46;94150.91;;;30.68;39.44
3428;BME280;1727;42.624;23.406;2023-08-01T13:09:12;94141.97;;;30.73;39.13
3428;BME280;1727;42.624;23.406;2023-08-01T13:11:39;94153.31;;;30.80;37.19